sensor_id;sensor_type;location;lat;lon;timestamp;P1;durP1;ratioP1;P2;durP2;ratioP2
21038;SDS011;10678;51.002;4.786;2022-07-24T00:01:46;236.07;;;216.00;;
21038;SDS011;10678;51.002;4.786;2022-07-24T00:04:11;263.83;;;241.57;;
21038;SDS011;10678;51.002;4.786;2022-07-24T00:06:37;285.30;;;264.40;;
21038;SDS011;10678;51.002;4.786;2022-07-24T00:09:03;306.50;;;283.15;;
21038;SDS011;10678;51.002;4.786;2022-07-24T00:11:29;336.02;;;309.58;;
21038;SDS011;10678;51.002;4.786;2022-07-24T00:13:55;326.52;;;302.38;;
21038;SDS011;10678;51.002;4.786;2022-07-24T00:16:21;365.15;;;338.85;;
21038;SDS011;10678;51.002;4.786;2022-07-24T00:18:46;342.70;;;318.05;;
21038;SDS011;10678;51.002;4.786;2022-07-24T00:21:12;259.38;;;237.35;;
21038;SDS011;10678;51.002;4.786;2022-07-24T00:23:38;250.57;;;230.80;;
21038;SDS011;10678;51.002;4.786;2022-07-24T00:26:03;243.27;;;224.27;;
21038;SDS011;10678;51.002;4.786;2022-07-24T00:28:29;240.23;;;221.70;;
21038;SDS011;10678;51.002;4.786;2022-07-24T00:30:55;240.65;;;220.38;;
21038;SDS011;10678;51.002;4.786;2022-07-24T00:33:21;220.07;;;202.82;;
21038;SDS011;10678;51.002;4.786;2022-07-24T00:35:46;239.25;;;218.23;;
21038;SDS011;10678;51.002;4.786;2022-07-24T00:38:12;213.88;;;196.02;;
21038;SDS011;10678;51.002;4.786;2022-07-24T00:40:38;216.40;;;196.45;;
21038;SDS011;10678;51.002;4.786;2022-07-24T00:43:04;224.50;;;203.60;;
21038;SDS011;10678;51.002;4.786;2022-07-24T00:45:29;224.30;;;201.75;;
21038;SDS011;10678;51.002;4.786;2022-07-24T00:47:55;222.73;;;201.20;;
21038;SDS011;10678;51.002;4.786;2022-07-24T00:50:21;232.90;;;210.32;;
21038;SDS011;10678;51.002;4.786;2022-07-24T00:52:47;202.05;;;185.48;;
21038;SDS011;10678;51.002;4.786;2022-07-24T00:55:13;213.27;;;193.95;;
21038;SDS011;10678;51.002;4.786;2022-07-24T00:57:39;227.70;;;208.10;;
21038;SDS011;10678;51.002;4.786;2022-07-24T01:00:08;219.82;;;180.43;;
21038;SDS011;10678;51.002;4.786;2022-07-24T01:02:35;187.07;;;169.30;;
21038;SDS011;10678;51.002;4.786;2022-07-24T01:05:04;222.63;;;202.82;;
21038;SDS011;10678;51.002;4.786;2022-07-24T01:07:30;175.38;;;160.68;;
21038;SDS011;10678;51.002;4.786;2022-07-24T01:09:56;169.13;;;154.65;;
21038;SDS011;10678;51.002;4.786;2022-07-24T01:12:22;178.80;;;160.88;;
21038;SDS011;10678;51.002;4.786;2022-07-24T01:14:48;192.00;;;174.65;;
21038;SDS011;10678;51.002;4.786;2022-07-24T01:17:14;189.68;;;171.60;;
21038;SDS011;10678;51.002;4.786;2022-07-24T01:19:39;158.45;;;142.40;;
21038;SDS011;10678;51.002;4.786;2022-07-24T01:22:05;168.48;;;149.15;;
21038;SDS011;10678;51.002;4.786;2022-07-24T01:24:31;144.75;;;130.95;;
21038;SDS011;10678;51.002;4.786;2022-07-24T01:26:56;167.18;;;149.00;;
21038;SDS011;10678;51.002;4.786;2022-07-24T01:29:22;153.02;;;139.05;;
21038;SDS011;10678;51.002;4.786;2022-07-24T01:31:47;147.38;;;134.07;;
21038;SDS011;10678;51.002;4.786;2022-07-24T01:34:13;167.60;;;148.52;;
21038;SDS011;10678;51.002;4.786;2022-07-24T01:36:39;187.70;;;166.63;;
21038;SDS011;10678;51.002;4.786;2022-07-24T01:39:04;170.57;;;154.50;;
21038;SDS011;10678;51.002;4.786;2022-07-24T01:41:30;163.70;;;145.50;;
21038;SDS011;10678;51.002;4.786;2022-07-24T01:43:56;167.57;;;144.68;;
21038;SDS011;10678;51.002;4.786;2022-07-24T01:46:22;161.40;;;143.82;;
21038;SDS011;10678;51.002;4.786;2022-07-24T01:48:47;199.85;;;181.02;;
21038;SDS011;10678;51.002;4.786;2022-07-24T01:51:13;199.18;;;165.73;;
21038;SDS011;10678;51.002;4.786;2022-07-24T01:53:39;205.80;;;185.10;;
21038;SDS011;10678;51.002;4.786;2022-07-24T01:56:04;212.00;;;189.38;;
21038;SDS011;10678;51.002;4.786;2022-07-24T01:58:30;230.07;;;206.30;;
21038;SDS011;10678;51.002;4.786;2022-07-24T02:00:56;219.80;;;200.57;;
21038;SDS011;10678;51.002;4.786;2022-07-24T02:03:21;206.57;;;187.98;;
21038;SDS011;10678;51.002;4.786;2022-07-24T02:05:47;228.45;;;204.98;;
21038;SDS011;10678;51.002;4.786;2022-07-24T02:08:13;210.23;;;191.15;;
21038;SDS011;10678;51.002;4.786;2022-07-24T02:10:38;219.93;;;200.05;;
21038;SDS011;10678;51.002;4.786;2022-07-24T02:13:04;212.65;;;193.80;;
21038;SDS011;10678;51.002;4.786;2022-07-24T02:15:30;221.52;;;202.70;;
21038;SDS011;10678;51.002;4.786;2022-07-24T02:17:57;252.90;;;227.88;;
21038;SDS011;10678;51.002;4.786;2022-07-24T02:20:25;246.07;;;220.60;;
21038;SDS011;10678;51.002;4.786;2022-07-24T02:22:51;236.00;;;213.30;;
21038;SDS011;10678;51.002;4.786;2022-07-24T02:25:16;230.80;;;207.63;;
21038;SDS011;10678;51.002;4.786;2022-07-24T02:27:42;210.90;;;187.40;;
21038;SDS011;10678;51.002;4.786;2022-07-24T02:30:10;218.95;;;195.45;;
21038;SDS011;10678;51.002;4.786;2022-07-24T02:32:38;225.82;;;202.25;;
21038;SDS011;10678;51.002;4.786;2022-07-24T02:35:04;223.65;;;201.05;;
21038;SDS011;10678;51.002;4.786;2022-07-24T02:37:30;205.82;;;188.30;;
21038;SDS011;10678;51.002;4.786;2022-07-24T02:39:56;225.75;;;204.00;;
21038;SDS011;10678;51.002;4.786;2022-07-24T02:42:21;219.65;;;199.82;;
21038;SDS011;10678;51.002;4.786;2022-07-24T02:44:47;221.38;;;201.52;;
21038;SDS011;10678;51.002;4.786;2022-07-24T02:47:12;237.32;;;212.43;;
21038;SDS011;10678;51.002;4.786;2022-07-24T02:49:38;225.68;;;203.82;;
21038;SDS011;10678;51.002;4.786;2022-07-24T02:52:04;226.43;;;204.10;;
21038;SDS011;10678;51.002;4.786;2022-07-24T02:54:30;231.27;;;209.70;;
21038;SDS011;10678;51.002;4.786;2022-07-24T02:56:55;232.77;;;210.52;;
21038;SDS011;10678;51.002;4.786;2022-07-24T02:59:21;232.80;;;211.52;;
21038;SDS011;10678;51.002;4.786;2022-07-24T03:01:47;253.30;;;229.70;;
21038;SDS011;10678;51.002;4.786;2022-07-24T03:04:13;254.80;;;229.02;;
21038;SDS011;10678;51.002;4.786;2022-07-24T03:06:38;248.35;;;221.85;;
21038;SDS011;10678;51.002;4.786;2022-07-24T03:09:04;274.00;;;246.20;;
21038;SDS011;10678;51.002;4.786;2022-07-24T03:11:30;270.95;;;242.35;;
21038;SDS011;10678;51.002;4.786;2022-07-24T03:13:55;279.75;;;249.93;;
21038;SDS011;10678;51.002;4.786;2022-07-24T03:16:21;278.58;;;250.63;;
21038;SDS011;10678;51.002;4.786;2022-07-24T03:18:46;318.98;;;286.38;;
21038;SDS011;10678;51.002;4.786;2022-07-24T03:21:13;270.67;;;247.10;;
21038;SDS011;10678;51.002;4.786;2022-07-24T03:23:40;276.90;;;249.27;;
21038;SDS011;10678;51.002;4.786;2022-07-24T03:26:05;280.65;;;255.98;;
21038;SDS011;10678;51.002;4.786;2022-07-24T03:28:31;280.02;;;255.10;;
21038;SDS011;10678;51.002;4.786;2022-07-24T03:30:57;280.63;;;258.83;;
21038;SDS011;10678;51.002;4.786;2022-07-24T03:33:22;269.08;;;244.40;;
21038;SDS011;10678;51.002;4.786;2022-07-24T03:35:48;308.60;;;280.52;;
21038;SDS011;10678;51.002;4.786;2022-07-24T03:38:14;266.17;;;244.18;;
21038;SDS011;10678;51.002;4.786;2022-07-24T03:40:40;293.50;;;263.88;;
21038;SDS011;10678;51.002;4.786;2022-07-24T03:43:05;294.05;;;263.27;;
21038;SDS011;10678;51.002;4.786;2022-07-24T03:45:31;347.95;;;313.88;;
21038;SDS011;10678;51.002;4.786;2022-07-24T03:47:57;303.45;;;272.15;;
21038;SDS011;10678;51.002;4.786;2022-07-24T03:50:22;289.13;;;260.25;;
21038;SDS011;10678;51.002;4.786;2022-07-24T03:52:48;319.98;;;288.38;;
21038;SDS011;10678;51.002;4.786;2022-07-24T03:55:14;325.05;;;290.83;;
21038;SDS011;10678;51.002;4.786;2022-07-24T03:57:39;308.80;;;279.92;;
21038;SDS011;10678;51.002;4.786;2022-07-24T04:00:05;323.10;;;291.60;;
21038;SDS011;10678;51.002;4.786;2022-07-24T04:02:32;313.98;;;283.55;;
21038;SDS011;10678;51.002;4.786;2022-07-24T04:04:58;327.98;;;296.00;;
21038;SDS011;10678;51.002;4.786;2022-07-24T04:07:23;338.27;;;303.42;;
21038;SDS011;10678;51.002;4.786;2022-07-24T04:09:49;325.05;;;294.35;;
21038;SDS011;10678;51.002;4.786;2022-07-24T04:12:14;331.23;;;298.50;;
21038;SDS011;10678;51.002;4.786;2022-07-24T04:14:40;328.20;;;295.73;;
21038;SDS011;10678;51.002;4.786;2022-07-24T04:17:06;351.83;;;317.40;;
21038;SDS011;10678;51.002;4.786;2022-07-24T04:19:31;356.88;;;322.20;;
21038;SDS011;10678;51.002;4.786;2022-07-24T04:21:57;390.80;;;353.20;;
21038;SDS011;10678;51.002;4.786;2022-07-24T04:24:23;411.92;;;370.58;;
21038;SDS011;10678;51.002;4.786;2022-07-24T04:26:49;405.23;;;363.08;;
21038;SDS011;10678;51.002;4.786;2022-07-24T04:29:15;375.92;;;338.42;;
21038;SDS011;10678;51.002;4.786;2022-07-24T04:31:40;397.02;;;355.67;;
21038;SDS011;10678;51.002;4.786;2022-07-24T04:34:06;375.75;;;337.23;;
21038;SDS011;10678;51.002;4.786;2022-07-24T04:36:32;381.38;;;344.58;;
21038;SDS011;10678;51.002;4.786;2022-07-24T04:38:57;371.35;;;336.25;;
21038;SDS011;10678;51.002;4.786;2022-07-24T04:41:23;354.75;;;320.77;;
21038;SDS011;10678;51.002;4.786;2022-07-24T04:43:49;329.95;;;294.65;;
21038;SDS011;10678;51.002;4.786;2022-07-24T04:46:15;274.08;;;248.25;;
21038;SDS011;10678;51.002;4.786;2022-07-24T04:48:41;262.40;;;234.25;;
21038;SDS011;10678;51.002;4.786;2022-07-24T04:51:07;220.63;;;198.88;;
21038;SDS011;10678;51.002;4.786;2022-07-24T04:53:33;273.65;;;250.75;;
21038;SDS011;10678;51.002;4.786;2022-07-24T04:55:58;313.30;;;283.25;;
21038;SDS011;10678;51.002;4.786;2022-07-24T04:58:25;271.95;;;244.18;;
21038;SDS011;10678;51.002;4.786;2022-07-24T05:00:51;245.32;;;219.40;;
21038;SDS011;10678;51.002;4.786;2022-07-24T05:03:17;241.38;;;219.45;;
21038;SDS011;10678;51.002;4.786;2022-07-24T05:05:43;246.98;;;222.13;;
21038;SDS011;10678;51.002;4.786;2022-07-24T05:08:09;246.10;;;219.88;;
21038;SDS011;10678;51.002;4.786;2022-07-24T05:10:35;255.70;;;229.35;;
21038;SDS011;10678;51.002;4.786;2022-07-24T05:13:00;271.40;;;244.73;;
21038;SDS011;10678;51.002;4.786;2022-07-24T05:15:26;255.63;;;231.55;;
21038;SDS011;10678;51.002;4.786;2022-07-24T05:17:52;239.85;;;214.57;;
21038;SDS011;10678;51.002;4.786;2022-07-24T05:20:18;247.13;;;222.13;;
21038;SDS011;10678;51.002;4.786;2022-07-24T05:22:43;291.15;;;261.33;;
21038;SDS011;10678;51.002;4.786;2022-07-24T05:25:09;265.83;;;241.48;;
21038;SDS011;10678;51.002;4.786;2022-07-24T05:27:35;272.70;;;249.02;;
21038;SDS011;10678;51.002;4.786;2022-07-24T05:30:00;315.58;;;287.92;;
21038;SDS011;10678;51.002;4.786;2022-07-24T05:32:26;378.13;;;341.25;;
21038;SDS011;10678;51.002;4.786;2022-07-24T05:34:52;310.92;;;281.60;;
21038;SDS011;10678;51.002;4.786;2022-07-24T05:37:17;323.08;;;295.65;;
21038;SDS011;10678;51.002;4.786;2022-07-24T05:39:43;270.20;;;243.95;;
21038;SDS011;10678;51.002;4.786;2022-07-24T05:42:09;295.55;;;268.27;;
21038;SDS011;10678;51.002;4.786;2022-07-24T05:44:34;253.23;;;228.23;;
21038;SDS011;10678;51.002;4.786;2022-07-24T05:47:00;270.80;;;242.35;;
21038;SDS011;10678;51.002;4.786;2022-07-24T05:49:25;286.95;;;259.30;;
21038;SDS011;10678;51.002;4.786;2022-07-24T05:51:51;257.10;;;228.07;;
21038;SDS011;10678;51.002;4.786;2022-07-24T05:54:17;339.33;;;306.63;;
21038;SDS011;10678;51.002;4.786;2022-07-24T05:56:42;334.58;;;303.25;;
21038;SDS011;10678;51.002;4.786;2022-07-24T05:59:08;251.43;;;225.30;;
21038;SDS011;10678;51.002;4.786;2022-07-24T06:01:34;273.20;;;240.27;;
21038;SDS011;10678;51.002;4.786;2022-07-24T06:03:59;304.77;;;271.77;;
21038;SDS011;10678;51.002;4.786;2022-07-24T06:06:25;368.80;;;330.83;;
21038;SDS011;10678;51.002;4.786;2022-07-24T06:08:50;676.95;;;603.20;;
21038;SDS011;10678;51.002;4.786;2022-07-24T06:11:16;543.67;;;455.42;;
21038;SDS011;10678;51.002;4.786;2022-07-24T06:13:42;600.92;;;529.95;;
21038;SDS011;10678;51.002;4.786;2022-07-24T06:16:08;525.13;;;461.98;;
21038;SDS011;10678;51.002;4.786;2022-07-24T06:18:34;641.42;;;573.13;;
21038;SDS011;10678;51.002;4.786;2022-07-24T06:20:59;460.98;;;389.58;;
21038;SDS011;10678;51.002;4.786;2022-07-24T06:23:25;484.55;;;433.77;;
21038;SDS011;10678;51.002;4.786;2022-07-24T06:25:51;890.67;;;763.13;;
21038;SDS011;10678;51.002;4.786;2022-07-24T06:28:16;810.88;;;660.22;;
21038;SDS011;10678;51.002;4.786;2022-07-24T06:30:42;791.47;;;672.60;;
21038;SDS011;10678;51.002;4.786;2022-07-24T06:33:08;646.17;;;531.88;;
21038;SDS011;10678;51.002;4.786;2022-07-24T06:35:33;1099.22;;;797.97;;
21038;SDS011;10678;51.002;4.786;2022-07-24T06:37:59;1642.97;;;999.90;;
21038;SDS011;10678;51.002;4.786;2022-07-24T06:40:25;1888.13;;;999.90;;
21038;SDS011;10678;51.002;4.786;2022-07-24T06:42:51;1999.90;;;999.90;;
21038;SDS011;10678;51.002;4.786;2022-07-24T06:45:17;1948.05;;;986.92;;
21038;SDS011;10678;51.002;4.786;2022-07-24T06:47:43;1557.68;;;895.90;;
21038;SDS011;10678;51.002;4.786;2022-07-24T06:50:09;1908.63;;;979.20;;
21038;SDS011;10678;51.002;4.786;2022-07-24T06:52:36;1673.60;;;944.03;;
21038;SDS011;10678;51.002;4.786;2022-07-24T06:55:02;1999.90;;;999.90;;
21038;SDS011;10678;51.002;4.786;2022-07-24T06:57:28;1999.90;;;999.90;;
21038;SDS011;10678;51.002;4.786;2022-07-24T06:59:53;1999.90;;;999.90;;
21038;SDS011;10678;51.002;4.786;2022-07-24T07:02:20;1999.90;;;999.90;;
21038;SDS011;10678;51.002;4.786;2022-07-24T07:04:46;1999.90;;;999.90;;
21038;SDS011;10678;51.002;4.786;2022-07-24T07:07:13;1999.90;;;999.90;;
21038;SDS011;10678;51.002;4.786;2022-07-24T07:09:40;1999.90;;;999.90;;
21038;SDS011;10678;51.002;4.786;2022-07-24T07:12:06;1999.90;;;974.10;;
21038;SDS011;10678;51.002;4.786;2022-07-24T07:14:32;1999.90;;;999.90;;
21038;SDS011;10678;51.002;4.786;2022-07-24T07:16:57;1999.90;;;999.90;;
21038;SDS011;10678;51.002;4.786;2022-07-24T07:19:23;1999.90;;;999.90;;
21038;SDS011;10678;51.002;4.786;2022-07-24T07:21:49;1999.90;;;933.60;;
21038;SDS011;10678;51.002;4.786;2022-07-24T07:24:15;1999.90;;;999.90;;
21038;SDS011;10678;51.002;4.786;2022-07-24T07:26:41;1999.90;;;999.90;;
21038;SDS011;10678;51.002;4.786;2022-07-24T07:29:07;1667.65;;;510.55;;
21038;SDS011;10678;51.002;4.786;2022-07-24T07:31:32;1999.90;;;766.53;;
21038;SDS011;10678;51.002;4.786;2022-07-24T07:33:58;1999.90;;;999.90;;
21038;SDS011;10678;51.002;4.786;2022-07-24T07:36:24;1999.90;;;724.95;;
21038;SDS011;10678;51.002;4.786;2022-07-24T07:38:50;1999.90;;;999.90;;
21038;SDS011;10678;51.002;4.786;2022-07-24T07:41:16;1999.90;;;999.90;;
21038;SDS011;10678;51.002;4.786;2022-07-24T07:43:44;1999.90;;;999.90;;
21038;SDS011;10678;51.002;4.786;2022-07-24T07:46:12;1999.90;;;926.08;;
21038;SDS011;10678;51.002;4.786;2022-07-24T07:48:38;1999.90;;;903.28;;
21038;SDS011;10678;51.002;4.786;2022-07-24T07:51:04;1999.90;;;535.60;;
21038;SDS011;10678;51.002;4.786;2022-07-24T07:53:29;1999.90;;;759.25;;
21038;SDS011;10678;51.002;4.786;2022-07-24T07:55:55;1999.90;;;996.92;;
21038;SDS011;10678;51.002;4.786;2022-07-24T07:58:21;1999.90;;;582.38;;
21038;SDS011;10678;51.002;4.786;2022-07-24T08:00:51;1999.90;;;557.38;;
21038;SDS011;10678;51.002;4.786;2022-07-24T08:03:17;1999.90;;;486.48;;
21038;SDS011;10678;51.002;4.786;2022-07-24T08:05:42;1009.03;;;171.98;;
21038;SDS011;10678;51.002;4.786;2022-07-24T08:08:08;1980.65;;;821.78;;
21038;SDS011;10678;51.002;4.786;2022-07-24T08:10:34;1999.90;;;839.90;;
21038;SDS011;10678;51.002;4.786;2022-07-24T08:13:00;1999.90;;;516.47;;
21038;SDS011;10678;51.002;4.786;2022-07-24T08:15:25;1999.90;;;999.90;;
21038;SDS011;10678;51.002;4.786;2022-07-24T08:17:52;1999.90;;;999.90;;
21038;SDS011;10678;51.002;4.786;2022-07-24T08:20:18;1999.90;;;999.90;;
21038;SDS011;10678;51.002;4.786;2022-07-24T08:22:45;1727.38;;;778.20;;
21038;SDS011;10678;51.002;4.786;2022-07-24T08:25:11;1999.90;;;999.90;;
21038;SDS011;10678;51.002;4.786;2022-07-24T08:27:36;1999.90;;;736.80;;
21038;SDS011;10678;51.002;4.786;2022-07-24T08:30:03;1999.90;;;999.90;;
21038;SDS011;10678;51.002;4.786;2022-07-24T08:32:30;1999.90;;;999.90;;
21038;SDS011;10678;51.002;4.786;2022-07-24T08:34:55;1999.90;;;999.90;;
21038;SDS011;10678;51.002;4.786;2022-07-24T08:37:21;1228.88;;;577.45;;
21038;SDS011;10678;51.002;4.786;2022-07-24T08:39:46;1999.90;;;999.90;;
21038;SDS011;10678;51.002;4.786;2022-07-24T08:42:12;1999.90;;;999.90;;
21038;SDS011;10678;51.002;4.786;2022-07-24T08:44:38;1999.90;;;999.90;;
21038;SDS011;10678;51.002;4.786;2022-07-24T08:47:04;1999.90;;;999.90;;
21038;SDS011;10678;51.002;4.786;2022-07-24T08:49:33;1999.90;;;999.90;;
21038;SDS011;10678;51.002;4.786;2022-07-24T08:52:02;1115.30;;;537.97;;
21038;SDS011;10678;51.002;4.786;2022-07-24T08:54:30;1999.90;;;999.90;;
21038;SDS011;10678;51.002;4.786;2022-07-24T08:56:57;1999.90;;;999.90;;
21038;SDS011;10678;51.002;4.786;2022-07-24T08:59:23;881.72;;;241.85;;
21038;SDS011;10678;51.002;4.786;2022-07-24T09:01:49;1999.90;;;999.90;;
21038;SDS011;10678;51.002;4.786;2022-07-24T09:04:33;1999.90;;;999.90;;
21038;SDS011;10678;51.002;4.786;2022-07-24T09:07:00;1999.90;;;999.90;;
21038;SDS011;10678;51.002;4.786;2022-07-24T09:09:27;1999.90;;;999.90;;
21038;SDS011;10678;51.002;4.786;2022-07-24T09:14:42;1999.90;;;999.90;;
21038;SDS011;10678;51.002;4.786;2022-07-24T09:17:13;1999.90;;;999.90;;
21038;SDS011;10678;51.002;4.786;2022-07-24T09:27:59;1999.90;;;999.90;;
21038;SDS011;10678;51.002;4.786;2022-07-24T09:33:16;1999.90;;;999.90;;
21038;SDS011;10678;51.002;4.786;2022-07-24T09:35:48;1999.90;;;999.90;;
21038;SDS011;10678;51.002;4.786;2022-07-24T09:38:16;1999.90;;;999.90;;
21038;SDS011;10678;51.002;4.786;2022-07-24T09:40:50;1999.90;;;999.90;;
21038;SDS011;10678;51.002;4.786;2022-07-24T09:43:26;1999.90;;;999.90;;
21038;SDS011;10678;51.002;4.786;2022-07-24T09:50:54;1999.90;;;999.90;;
21038;SDS011;10678;51.002;4.786;2022-07-24T09:53:23;1999.90;;;999.90;;
21038;SDS011;10678;51.002;4.786;2022-07-24T09:55:57;1999.90;;;999.90;;
21038;SDS011;10678;51.002;4.786;2022-07-24T09:58:30;1354.80;;;467.95;;
21038;SDS011;10678;51.002;4.786;2022-07-24T10:00:59;1999.90;;;999.90;;
21038;SDS011;10678;51.002;4.786;2022-07-24T10:03:30;1999.90;;;999.90;;
21038;SDS011;10678;51.002;4.786;2022-07-24T10:05:59;1999.90;;;999.90;;
21038;SDS011;10678;51.002;4.786;2022-07-24T10:08:27;1583.80;;;378.73;;
21038;SDS011;10678;51.002;4.786;2022-07-24T10:10:53;1999.90;;;999.90;;
21038;SDS011;10678;51.002;4.786;2022-07-24T10:13:20;1963.70;;;585.83;;
21038;SDS011;10678;51.002;4.786;2022-07-24T10:15:54;1999.90;;;999.90;;
21038;SDS011;10678;51.002;4.786;2022-07-24T10:29:14;1999.90;;;999.90;;
21038;SDS011;10678;51.002;4.786;2022-07-24T10:31:44;1999.90;;;999.90;;
21038;SDS011;10678;51.002;4.786;2022-07-24T10:39:30;1999.90;;;999.90;;
21038;SDS011;10678;51.002;4.786;2022-07-24T10:42:05;1999.90;;;999.90;;
21038;SDS011;10678;51.002;4.786;2022-07-24T10:44:31;1999.90;;;999.90;;
21038;SDS011;10678;51.002;4.786;2022-07-24T10:47:05;1999.90;;;783.85;;
21038;SDS011;10678;51.002;4.786;2022-07-24T10:52:01;1999.90;;;875.35;;
21038;SDS011;10678;51.002;4.786;2022-07-24T10:54:26;1999.90;;;999.90;;
21038;SDS011;10678;51.002;4.786;2022-07-24T10:56:52;1999.90;;;999.90;;
21038;SDS011;10678;51.002;4.786;2022-07-24T10:59:31;1999.90;;;999.90;;
21038;SDS011;10678;51.002;4.786;2022-07-24T11:01:59;1999.90;;;999.90;;
21038;SDS011;10678;51.002;4.786;2022-07-24T11:10:53;1999.90;;;999.90;;
21038;SDS011;10678;51.002;4.786;2022-07-24T11:18:39;1999.90;;;999.90;;
21038;SDS011;10678;51.002;4.786;2022-07-24T11:21:35;1999.90;;;999.90;;
21038;SDS011;10678;51.002;4.786;2022-07-24T11:27:07;1999.90;;;999.90;;
21038;SDS011;10678;51.002;4.786;2022-07-24T11:29:41;1999.90;;;999.90;;
21038;SDS011;10678;51.002;4.786;2022-07-24T11:32:07;1999.90;;;999.90;;
21038;SDS011;10678;51.002;4.786;2022-07-24T11:34:42;1999.90;;;999.90;;
21038;SDS011;10678;51.002;4.786;2022-07-24T11:37:12;1999.90;;;999.90;;
21038;SDS011;10678;51.002;4.786;2022-07-24T11:39:39;1999.90;;;999.90;;
21038;SDS011;10678;51.002;4.786;2022-07-24T11:42:07;1999.90;;;999.90;;
21038;SDS011;10678;51.002;4.786;2022-07-24T11:44:37;1999.90;;;999.90;;
21038;SDS011;10678;51.002;4.786;2022-07-24T11:49:39;1999.90;;;999.90;;
21038;SDS011;10678;51.002;4.786;2022-07-24T11:54:48;1999.90;;;999.90;;
21038;SDS011;10678;51.002;4.786;2022-07-24T11:57:22;1999.90;;;999.90;;
21038;SDS011;10678;51.002;4.786;2022-07-24T11:59:50;1999.90;;;999.90;;
21038;SDS011;10678;51.002;4.786;2022-07-24T12:02:18;1999.90;;;999.90;;
21038;SDS011;10678;51.002;4.786;2022-07-24T12:04:45;1999.90;;;999.90;;
21038;SDS011;10678;51.002;4.786;2022-07-24T12:07:16;1999.90;;;999.90;;
21038;SDS011;10678;51.002;4.786;2022-07-24T12:09:51;1999.90;;;999.90;;
21038;SDS011;10678;51.002;4.786;2022-07-24T12:14:45;1999.90;;;999.90;;
21038;SDS011;10678;51.002;4.786;2022-07-24T12:17:11;1999.90;;;999.90;;
21038;SDS011;10678;51.002;4.786;2022-07-24T12:19:36;1999.90;;;999.90;;
21038;SDS011;10678;51.002;4.786;2022-07-24T12:22:02;1999.90;;;999.90;;
21038;SDS011;10678;51.002;4.786;2022-07-24T12:24:30;1999.90;;;999.90;;
21038;SDS011;10678;51.002;4.786;2022-07-24T12:26:57;1999.90;;;999.90;;
21038;SDS011;10678;51.002;4.786;2022-07-24T12:29:24;1999.90;;;999.90;;
21038;SDS011;10678;51.002;4.786;2022-07-24T12:34:42;1999.90;;;999.90;;
21038;SDS011;10678;51.002;4.786;2022-07-24T12:37:16;1999.90;;;999.90;;
21038;SDS011;10678;51.002;4.786;2022-07-24T12:39:46;1999.90;;;999.90;;
21038;SDS011;10678;51.002;4.786;2022-07-24T12:42:12;1999.90;;;999.90;;
21038;SDS011;10678;51.002;4.786;2022-07-24T12:44:41;1999.90;;;999.90;;
21038;SDS011;10678;51.002;4.786;2022-07-24T12:47:08;1999.90;;;999.90;;
21038;SDS011;10678;51.002;4.786;2022-07-24T12:49:44;1999.90;;;999.90;;
21038;SDS011;10678;51.002;4.786;2022-07-24T12:52:19;1999.90;;;999.90;;
21038;SDS011;10678;51.002;4.786;2022-07-24T12:54:48;1999.90;;;999.90;;
21038;SDS011;10678;51.002;4.786;2022-07-24T12:57:15;1999.90;;;999.90;;
21038;SDS011;10678;51.002;4.786;2022-07-24T12:59:42;1999.90;;;999.90;;
21038;SDS011;10678;51.002;4.786;2022-07-24T13:04:41;1999.90;;;999.90;;
21038;SDS011;10678;51.002;4.786;2022-07-24T13:07:11;1999.90;;;999.90;;
21038;SDS011;10678;51.002;4.786;2022-07-24T13:09:38;1999.90;;;999.90;;
21038;SDS011;10678;51.002;4.786;2022-07-24T13:12:05;1999.90;;;999.90;;
21038;SDS011;10678;51.002;4.786;2022-07-24T13:14:32;1999.90;;;999.90;;
21038;SDS011;10678;51.002;4.786;2022-07-24T13:17:02;1999.90;;;999.90;;
21038;SDS011;10678;51.002;4.786;2022-07-24T13:19:33;1999.90;;;999.90;;
21038;SDS011;10678;51.002;4.786;2022-07-24T13:21:59;1999.90;;;999.90;;
21038;SDS011;10678;51.002;4.786;2022-07-24T13:24:25;1999.90;;;999.90;;
21038;SDS011;10678;51.002;4.786;2022-07-24T13:26:51;1999.90;;;999.90;;
21038;SDS011;10678;51.002;4.786;2022-07-24T13:29:17;1999.90;;;999.90;;
21038;SDS011;10678;51.002;4.786;2022-07-24T13:31:43;1999.90;;;999.90;;
21038;SDS011;10678;51.002;4.786;2022-07-24T13:34:09;1999.90;;;999.90;;
21038;SDS011;10678;51.002;4.786;2022-07-24T13:36:35;1999.90;;;999.90;;
21038;SDS011;10678;51.002;4.786;2022-07-24T13:39:03;1999.90;;;999.90;;
21038;SDS011;10678;51.002;4.786;2022-07-24T13:41:29;1999.90;;;999.90;;
21038;SDS011;10678;51.002;4.786;2022-07-24T13:43:55;1999.90;;;999.90;;
21038;SDS011;10678;51.002;4.786;2022-07-24T13:46:21;1999.90;;;999.90;;
21038;SDS011;10678;51.002;4.786;2022-07-24T13:48:47;1999.90;;;999.90;;
21038;SDS011;10678;51.002;4.786;2022-07-24T13:51:13;1999.90;;;999.90;;
21038;SDS011;10678;51.002;4.786;2022-07-24T13:53:38;1999.90;;;999.90;;
21038;SDS011;10678;51.002;4.786;2022-07-24T13:56:07;1999.90;;;999.90;;
21038;SDS011;10678;51.002;4.786;2022-07-24T13:58:34;1999.90;;;999.90;;
21038;SDS011;10678;51.002;4.786;2022-07-24T14:01:03;1999.90;;;999.90;;
21038;SDS011;10678;51.002;4.786;2022-07-24T14:03:30;1999.90;;;999.90;;
21038;SDS011;10678;51.002;4.786;2022-07-24T14:05:56;1999.90;;;999.90;;
21038;SDS011;10678;51.002;4.786;2022-07-24T14:08:22;1999.90;;;999.90;;
21038;SDS011;10678;51.002;4.786;2022-07-24T14:10:48;1999.90;;;999.90;;
21038;SDS011;10678;51.002;4.786;2022-07-24T14:13:13;1666.10;;;848.60;;
21038;SDS011;10678;51.002;4.786;2022-07-24T14:15:39;1196.85;;;614.63;;
21038;SDS011;10678;51.002;4.786;2022-07-24T14:18:05;1278.68;;;533.42;;
21038;SDS011;10678;51.002;4.786;2022-07-24T14:20:30;1768.72;;;717.65;;
21038;SDS011;10678;51.002;4.786;2022-07-24T14:22:57;1636.25;;;934.58;;
21038;SDS011;10678;51.002;4.786;2022-07-24T14:25:22;1891.72;;;963.58;;
21038;SDS011;10678;51.002;4.786;2022-07-24T14:27:48;1999.90;;;999.90;;
21038;SDS011;10678;51.002;4.786;2022-07-24T14:30:14;1999.90;;;999.90;;
21038;SDS011;10678;51.002;4.786;2022-07-24T14:32:39;1999.90;;;999.90;;
21038;SDS011;10678;51.002;4.786;2022-07-24T14:35:05;1999.90;;;999.90;;
21038;SDS011;10678;51.002;4.786;2022-07-24T14:37:33;1999.90;;;999.90;;
21038;SDS011;10678;51.002;4.786;2022-07-24T14:40:00;1999.90;;;999.90;;
21038;SDS011;10678;51.002;4.786;2022-07-24T14:42:26;1999.90;;;999.90;;
21038;SDS011;10678;51.002;4.786;2022-07-24T14:44:51;1999.90;;;999.90;;
21038;SDS011;10678;51.002;4.786;2022-07-24T14:47:17;1974.05;;;912.13;;
21038;SDS011;10678;51.002;4.786;2022-07-24T14:49:43;1945.13;;;905.45;;
21038;SDS011;10678;51.002;4.786;2022-07-24T14:52:08;1654.82;;;876.08;;
21038;SDS011;10678;51.002;4.786;2022-07-24T14:54:34;1543.97;;;868.85;;